createdAt,value
2023-08-16T00:00:35.470Z,4.30
2023-08-16T00:03:02.078Z,4.20
2023-08-16T00:05:30.278Z,4.28
2023-08-16T00:07:56.682Z,4.68
2023-08-16T00:10:23.114Z,4.47
2023-08-16T00:12:49.507Z,4.80
2023-08-16T00:15:16.108Z,4.65
2023-08-16T00:17:42.555Z,4.85
2023-08-16T00:20:09.719Z,4.00
2023-08-16T00:22:36.180Z,4.70
2023-08-16T00:25:03.298Z,4.20
2023-08-16T00:27:30.514Z,4.82
2023-08-16T00:29:57.037Z,4.05
2023-08-16T00:32:23.396Z,4.40
2023-08-16T00:34:49.788Z,4.70
2023-08-16T00:37:16.363Z,4.15
2023-08-16T00:39:44.405Z,4.72
2023-08-16T00:42:11.613Z,4.38
2023-08-16T00:44:39.897Z,4.60
2023-08-16T00:47:06.716Z,4.65
2023-08-16T00:49:33.306Z,4.60
2023-08-16T00:52:01.997Z,4.35
2023-08-16T00:54:29.682Z,4.07
2023-08-16T00:56:59.013Z,4.97
2023-08-16T00:59:27.702Z,4.38
2023-08-16T01:01:55.096Z,4.80
2023-08-16T01:04:21.498Z,3.45
2023-08-16T01:06:49.158Z,4.57
2023-08-16T01:09:16.228Z,4.60
2023-08-16T01:11:52.135Z,4.95
2023-08-16T01:14:26.138Z,5.63
2023-08-16T01:16:54.581Z,5.65
2023-08-16T01:19:33.291Z,4.95
2023-08-16T01:22:28.929Z,5.95
2023-08-16T01:25:21.823Z,5.32
2023-08-16T01:27:49.178Z,5.97
2023-08-16T01:30:15.907Z,5.18
2023-08-16T01:32:42.596Z,5.35
2023-08-16T01:35:09.070Z,6.03
2023-08-16T01:37:35.942Z,6.53
2023-08-16T01:40:06.261Z,6.43
2023-08-16T01:42:52.217Z,6.50
2023-08-16T01:45:19.807Z,6.50
2023-08-16T01:47:48.331Z,6.22
2023-08-16T01:50:15.373Z,7.07
2023-08-16T01:52:41.953Z,7.00
2023-08-16T01:55:09.434Z,7.30
2023-08-16T01:57:35.876Z,8.18
2023-08-16T02:00:02.349Z,7.85
2023-08-16T02:02:41.413Z,7.30
2023-08-16T02:05:08.356Z,6.75
2023-08-16T02:07:34.708Z,7.38
2023-08-16T02:10:01.180Z,7.05
2023-08-16T02:12:27.566Z,7.47
2023-08-16T02:14:54.019Z,7.05
2023-08-16T02:17:20.386Z,6.85
2023-08-16T02:19:46.754Z,7.07
2023-08-16T02:22:13.832Z,7.35
2023-08-16T02:24:40.401Z,7.45
2023-08-16T02:27:06.797Z,6.18
2023-08-16T02:29:33.153Z,6.72
2023-08-16T02:31:59.509Z,7.80
2023-08-16T02:34:25.866Z,8.00
2023-08-16T02:36:52.251Z,6.97
2023-08-16T02:39:18.642Z,7.78
2023-08-16T02:41:45.009Z,8.73
2023-08-16T02:44:11.368Z,7.72
2023-08-16T02:46:37.897Z,8.00
2023-08-16T02:49:04.453Z,7.75
2023-08-16T02:51:30.844Z,6.72
2023-08-16T02:53:57.217Z,7.60
2023-08-16T02:56:23.614Z,8.52
2023-08-16T02:58:51.049Z,7.80
2023-08-16T03:01:17.469Z,7.13
2023-08-16T03:03:43.963Z,7.63
2023-08-16T03:06:10.335Z,8.20
2023-08-16T03:08:36.688Z,8.23
2023-08-16T03:11:03.117Z,6.95
2023-08-16T03:13:29.751Z,7.70
2023-08-16T03:15:56.127Z,7.63
2023-08-16T03:18:22.491Z,7.75
2023-08-16T03:20:49.028Z,8.77
2023-08-16T03:23:15.669Z,7.88
2023-08-16T03:25:42.689Z,7.03
2023-08-16T03:28:09.123Z,7.72
2023-08-16T03:30:35.600Z,7.10
2023-08-16T03:33:03.557Z,6.88
2023-08-16T03:35:29.914Z,7.03
2023-08-16T03:37:57.008Z,7.10
2023-08-16T03:40:25.154Z,7.75
2023-08-16T03:42:51.513Z,7.28
2023-08-16T03:45:18.001Z,7.22
2023-08-16T03:47:44.613Z,7.82
2023-08-16T03:50:11.004Z,7.43
2023-08-16T03:52:37.390Z,6.18
2023-08-16T03:55:06.109Z,5.85
2023-08-16T03:57:33.526Z,6.00
2023-08-16T03:59:59.884Z,5.72
2023-08-16T04:02:26.481Z,6.07
2023-08-16T04:04:54.760Z,8.35
2023-08-16T04:07:21.250Z,7.60
2023-08-16T04:09:47.703Z,9.23
2023-08-16T04:12:14.078Z,9.45
2023-08-16T04:14:40.464Z,9.43
2023-08-16T04:17:06.873Z,9.52
2023-08-16T04:19:33.362Z,9.05
2023-08-16T04:21:59.974Z,9.63
2023-08-16T04:24:26.401Z,9.45
2023-08-16T04:26:52.752Z,8.77
2023-08-16T04:29:19.252Z,8.35
2023-08-16T04:31:46.036Z,9.50
2023-08-16T04:34:12.835Z,8.43
2023-08-16T04:36:39.844Z,8.68
2023-08-16T04:39:06.503Z,7.80
2023-08-16T04:41:32.888Z,6.85
2023-08-16T04:43:59.278Z,5.70
2023-08-16T04:46:28.175Z,5.40
2023-08-16T04:48:55.881Z,5.80
2023-08-16T04:51:22.284Z,5.13
2023-08-16T04:53:50.326Z,6.53
2023-08-16T04:56:17.071Z,7.35
2023-08-16T04:58:43.824Z,7.72
2023-08-16T05:01:10.671Z,8.30
2023-08-16T05:03:39.082Z,9.00
2023-08-16T05:06:06.108Z,8.27
2023-08-16T05:08:32.552Z,9.20
2023-08-16T05:10:59.376Z,7.55
2023-08-16T05:13:25.846Z,8.38
2023-08-16T05:15:52.268Z,9.27
2023-08-16T05:18:18.816Z,9.23
2023-08-16T05:20:45.378Z,9.82
2023-08-16T05:23:11.751Z,8.43
2023-08-16T05:25:38.851Z,9.32
2023-08-16T05:28:05.629Z,8.45
2023-08-16T05:30:32.032Z,8.85
2023-08-16T05:32:58.504Z,8.20
2023-08-16T05:35:25.015Z,9.50
2023-08-16T05:37:55.663Z,8.73
2023-08-16T05:40:22.094Z,9.13
2023-08-16T05:42:48.436Z,8.73
2023-08-16T05:45:14.830Z,9.80
2023-08-16T05:47:41.273Z,9.48
2023-08-16T05:50:08.033Z,8.32
2023-08-16T05:52:34.382Z,8.75
2023-08-16T05:55:00.743Z,8.20
2023-08-16T05:57:27.213Z,9.00
2023-08-16T05:59:53.662Z,9.43
2023-08-16T06:02:24.076Z,8.00
2023-08-16T06:04:53.062Z,9.73
2023-08-16T06:07:19.443Z,9.80
2023-08-16T06:09:46.236Z,8.35
2023-08-16T06:12:13.675Z,7.60
2023-08-16T06:14:40.105Z,8.18
2023-08-16T06:17:06.529Z,7.13
2023-08-16T06:19:32.956Z,7.95
2023-08-16T06:22:00.604Z,8.00
2023-08-16T06:24:27.220Z,7.50
2023-08-16T06:26:53.626Z,8.63
2023-08-16T06:29:19.998Z,8.00
2023-08-16T06:31:47.996Z,7.95
2023-08-16T06:34:14.360Z,8.32
2023-08-16T06:36:41.412Z,8.82
2023-08-16T06:39:07.761Z,8.23
2023-08-16T06:41:34.115Z,8.23
2023-08-16T06:44:00.520Z,11.23
2023-08-16T06:46:26.977Z,12.23
2023-08-16T06:48:53.900Z,11.48
2023-08-16T06:51:20.308Z,11.90
2023-08-16T06:53:46.995Z,12.30
2023-08-16T06:56:13.439Z,10.75
2023-08-16T06:58:42.249Z,9.65
2023-08-16T07:01:09.353Z,8.85
2023-08-16T07:03:36.847Z,9.00
2023-08-16T07:06:03.298Z,9.18
2023-08-16T07:08:29.713Z,9.15
2023-08-16T07:10:56.083Z,10.52
2023-08-16T07:13:22.659Z,10.82
2023-08-16T07:15:49.078Z,9.80
2023-08-16T07:18:15.572Z,11.80
2023-08-16T07:20:41.954Z,10.05
2023-08-16T07:23:08.321Z,10.57
2023-08-16T07:25:35.644Z,9.90
2023-08-16T07:28:02.250Z,9.05
2023-08-16T07:30:29.352Z,8.70
2023-08-16T07:32:56.024Z,7.80
2023-08-16T07:35:23.386Z,7.65
2023-08-16T07:37:49.738Z,8.10
2023-08-16T07:40:16.161Z,7.32
2023-08-16T07:42:42.548Z,7.47
2023-08-16T07:45:09.275Z,7.53
2023-08-16T07:47:35.912Z,7.18
2023-08-16T07:50:02.330Z,6.85
2023-08-16T07:52:28.752Z,7.25
2023-08-16T07:54:57.149Z,7.47
2023-08-16T07:57:23.838Z,7.63
2023-08-16T07:59:50.175Z,8.68
2023-08-16T08:02:16.625Z,9.00
2023-08-16T08:04:43.137Z,10.55
2023-08-16T08:07:09.576Z,10.38
2023-08-16T08:09:36.008Z,11.30
2023-08-16T08:12:02.373Z,11.02
2023-08-16T08:14:29.232Z,10.82
2023-08-16T08:16:56.778Z,11.45
2023-08-16T08:19:23.379Z,11.55
2023-08-16T08:21:49.777Z,10.00
2023-08-16T08:24:16.651Z,10.57
2023-08-16T08:26:44.178Z,10.73
2023-08-16T08:29:10.544Z,11.68
2023-08-16T08:31:36.967Z,9.43
2023-08-16T08:34:03.502Z,10.02
2023-08-16T08:36:29.917Z,8.98
2023-08-16T08:38:56.363Z,9.23
2023-08-16T08:41:30.980Z,8.88
2023-08-16T08:44:06.166Z,9.68
2023-08-16T08:46:33.083Z,9.50
2023-08-16T08:49:01.209Z,10.77
2023-08-16T08:51:33.777Z,11.30
2023-08-16T08:54:00.382Z,11.23
2023-08-16T08:56:30.100Z,11.07
2023-08-16T09:01:42.038Z,11.38
2023-08-16T09:04:10.203Z,10.75
2023-08-16T09:06:36.594Z,11.68
2023-08-16T09:09:03.192Z,11.85
2023-08-16T09:11:29.774Z,10.63
2023-08-16T09:13:56.842Z,12.88
2023-08-16T09:16:23.418Z,13.98
2023-08-16T09:18:50.693Z,11.73
2023-08-16T09:21:19.430Z,11.77
2023-08-16T09:23:57.185Z,12.10
2023-08-16T09:26:23.908Z,9.68
2023-08-16T09:29:00.313Z,10.68
2023-08-16T09:31:37.667Z,10.85
2023-08-16T09:34:05.027Z,11.23
2023-08-16T09:36:31.753Z,9.85
2023-08-16T09:39:02.597Z,9.77
2023-08-16T09:41:29.047Z,8.00
2023-08-16T09:44:03.999Z,9.85
2023-08-16T09:46:30.531Z,9.18
2023-08-16T09:54:15.805Z,8.50
2023-08-16T10:07:12.410Z,8.95
2023-08-16T10:09:34.719Z,11.20
2023-08-16T10:12:05.430Z,11.40
2023-08-16T10:14:32.654Z,9.65
2023-08-16T10:17:03.993Z,10.00
2023-08-16T10:19:34.578Z,9.50
2023-08-16T10:22:03.131Z,7.93
2023-08-16T10:24:50.815Z,8.00
2023-08-16T10:27:21.456Z,7.18
2023-08-16T10:29:52.644Z,7.63
2023-08-16T10:32:20.097Z,7.55
2023-08-16T10:34:46.999Z,7.03
2023-08-16T10:37:14.743Z,5.55
2023-08-16T10:40:11.761Z,7.72
2023-08-16T10:42:37.081Z,6.38
2023-08-16T10:45:03.998Z,6.60
2023-08-16T10:47:31.229Z,5.82
2023-08-16T10:50:00.633Z,6.20
2023-08-16T10:52:30.615Z,6.45
2023-08-16T10:54:59.950Z,5.83
2023-08-16T10:57:27.472Z,6.03
2023-08-16T11:00:05.410Z,6.25
2023-08-16T11:02:32.858Z,6.55
2023-08-16T11:05:03.275Z,5.50
2023-08-16T11:07:29.808Z,5.25
2023-08-16T11:10:01.197Z,5.90
2023-08-16T11:12:30.351Z,4.70
2023-08-16T11:14:57.618Z,4.15
2023-08-16T11:17:28.395Z,4.72
2023-08-16T11:19:55.639Z,4.55
2023-08-16T11:22:24.066Z,4.60
2023-08-16T11:24:51.441Z,3.97
2023-08-16T11:27:23.746Z,4.32
2023-08-16T11:29:58.384Z,3.95
2023-08-16T11:32:37.128Z,4.00
2023-08-16T11:35:11.196Z,3.83
2023-08-16T11:37:40.178Z,3.70
2023-08-16T11:40:08.653Z,3.47
2023-08-16T11:42:35.067Z,3.35
2023-08-16T11:45:02.137Z,3.80
2023-08-16T11:47:28.560Z,3.20
2023-08-16T11:49:54.981Z,3.65
2023-08-16T11:52:25.118Z,3.97
2023-08-16T11:55:06.176Z,3.17
2023-08-16T11:57:33.295Z,3.70
2023-08-16T12:00:02.555Z,3.30
2023-08-16T12:02:32.301Z,4.03
2023-08-16T12:05:10.088Z,3.05
2023-08-16T12:07:43.749Z,3.35
2023-08-16T12:10:10.211Z,3.28
2023-08-16T12:12:39.305Z,3.20
2023-08-16T12:15:06.133Z,3.05
2023-08-16T12:17:33.415Z,3.42
2023-08-16T12:19:59.772Z,2.92
2023-08-16T12:22:26.122Z,3.50
2023-08-16T12:24:52.585Z,3.00
2023-08-16T12:27:18.954Z,2.83
2023-08-16T12:29:45.286Z,3.10
2023-08-16T12:32:11.627Z,2.80
2023-08-16T12:34:47.979Z,3.17
2023-08-16T12:37:24.399Z,3.00
2023-08-16T12:39:51.333Z,3.08
2023-08-16T12:42:17.725Z,2.92
2023-08-16T12:44:44.305Z,2.97
2023-08-16T12:47:11.392Z,3.00
2023-08-16T12:49:37.757Z,2.90
2023-08-16T12:52:04.358Z,2.70
2023-08-16T12:54:30.747Z,2.88
2023-08-16T12:57:06.093Z,3.08
2023-08-16T12:59:33.312Z,3.20
2023-08-16T13:04:36.298Z,3.35
2023-08-16T13:07:06.382Z,2.72
2023-08-16T13:09:48.186Z,3.22
2023-08-16T13:12:15.578Z,3.22
2023-08-16T13:15:06.409Z,3.17
2023-08-16T13:20:05.625Z,3.13
2023-08-16T13:25:16.493Z,3.22
2023-08-16T13:27:44.696Z,3.28
2023-08-16T13:30:45.228Z,3.20
2023-08-16T13:35:31.406Z,3.42
2023-08-16T13:37:59.054Z,3.53
2023-08-16T13:40:34.000Z,3.20
2023-08-16T13:43:16.112Z,3.35
2023-08-16T13:45:46.028Z,3.70
2023-08-16T13:48:12.852Z,4.03
2023-08-16T13:50:40.372Z,3.38
2023-08-16T13:53:06.825Z,4.03
2023-08-16T13:55:33.391Z,3.90
2023-08-16T13:57:59.741Z,3.65
2023-08-16T14:00:26.404Z,4.00
2023-08-16T14:02:53.559Z,4.25
2023-08-16T14:05:20.781Z,2.90
2023-08-16T14:07:47.696Z,3.70
2023-08-16T14:10:14.529Z,3.03
2023-08-16T14:12:43.856Z,3.60
2023-08-16T14:15:10.653Z,3.67
2023-08-16T14:17:37.159Z,3.28
2023-08-16T14:20:05.424Z,3.55
2023-08-16T14:22:31.853Z,3.45
2023-08-16T14:24:58.243Z,3.50
2023-08-16T14:27:24.802Z,4.05
2023-08-16T14:29:51.311Z,3.22
2023-08-16T14:32:17.699Z,3.45
2023-08-16T14:34:44.091Z,3.13
2023-08-16T14:37:10.526Z,3.15
2023-08-16T14:39:36.875Z,4.05
2023-08-16T14:42:03.448Z,3.28
2023-08-16T14:44:29.885Z,3.53
2023-08-16T14:46:56.424Z,3.38
2023-08-16T14:49:22.858Z,3.20
2023-08-16T14:51:49.311Z,3.58
2023-08-16T14:54:15.674Z,4.00
2023-08-16T14:56:43.877Z,3.50
2023-08-16T14:59:11.187Z,3.50
2023-08-16T15:01:38.318Z,3.38
2023-08-16T15:04:05.519Z,3.53
2023-08-16T15:06:31.959Z,3.40
2023-08-16T15:09:05.051Z,3.15
2023-08-16T15:11:32.476Z,3.75
2023-08-16T15:13:59.227Z,3.58
2023-08-16T15:16:26.254Z,3.08
2023-08-16T15:18:52.827Z,3.60
2023-08-16T15:21:19.198Z,3.30
2023-08-16T15:23:47.065Z,3.65
2023-08-16T15:26:13.520Z,3.75
2023-08-16T15:28:40.019Z,3.50
2023-08-16T15:31:06.685Z,3.78
2023-08-16T15:33:33.912Z,3.03
2023-08-16T15:36:00.284Z,3.40
2023-08-16T15:38:42.262Z,3.65
2023-08-16T15:41:08.740Z,3.55
2023-08-16T15:43:37.673Z,3.50
2023-08-16T15:46:05.355Z,3.35
2023-08-16T15:48:31.891Z,3.50
2023-08-16T15:50:58.275Z,3.20
2023-08-16T15:53:24.960Z,3.22
2023-08-16T15:55:55.539Z,3.40
2023-08-16T15:58:23.475Z,3.30
2023-08-16T16:00:54.512Z,3.38
2023-08-16T16:03:21.456Z,3.35
2023-08-16T16:05:48.342Z,3.60
2023-08-16T16:08:14.815Z,3.40
2023-08-16T16:10:41.226Z,3.17
2023-08-16T16:13:07.924Z,3.53
2023-08-16T16:15:34.506Z,3.40
2023-08-16T16:18:00.973Z,3.40
2023-08-16T16:20:28.029Z,3.40
2023-08-16T16:22:54.554Z,3.45
2023-08-16T16:25:21.456Z,3.58
2023-08-16T16:27:47.942Z,3.60
2023-08-16T16:30:14.388Z,3.40
2023-08-16T16:32:41.585Z,3.75
2023-08-16T16:35:08.174Z,3.88
2023-08-16T16:37:34.580Z,4.00
2023-08-16T16:40:00.941Z,3.20
2023-08-16T16:42:27.553Z,3.88
2023-08-16T16:44:54.289Z,3.58
2023-08-16T16:47:20.722Z,3.50
2023-08-16T16:49:47.260Z,4.00
2023-08-16T16:52:13.597Z,3.80
2023-08-16T16:54:39.976Z,3.10
2023-08-16T16:57:06.337Z,3.63
2023-08-16T16:59:32.762Z,3.03
2023-08-16T17:01:59.156Z,3.67
2023-08-16T17:04:25.612Z,3.58
2023-08-16T17:06:56.229Z,3.72
2023-08-16T17:09:22.578Z,3.35
2023-08-16T17:11:48.945Z,3.15
2023-08-16T17:14:15.359Z,3.88
2023-08-16T17:16:41.733Z,3.53
2023-08-16T17:19:08.238Z,3.70
2023-08-16T17:21:34.707Z,3.40
2023-08-16T17:24:01.092Z,3.60
2023-08-16T17:26:27.506Z,3.33
2023-08-16T17:28:53.894Z,4.28
2023-08-16T17:31:20.289Z,3.30
2023-08-16T17:33:46.787Z,3.15
2023-08-16T17:36:14.451Z,3.40
2023-08-16T17:38:41.493Z,4.07
2023-08-16T17:41:08.579Z,3.53
2023-08-16T17:43:35.615Z,3.85
2023-08-16T17:46:02.077Z,3.88
2023-08-16T17:48:28.848Z,3.65
2023-08-16T17:50:55.191Z,3.38
2023-08-16T17:53:22.116Z,3.67
2023-08-16T17:55:49.116Z,3.88
2023-08-16T17:58:18.510Z,2.42
2023-08-16T18:00:44.894Z,1.77
2023-08-16T18:03:11.316Z,2.50
2023-08-16T18:05:37.724Z,3.78
2023-08-16T18:08:04.484Z,2.63
2023-08-16T18:10:30.915Z,2.00
2023-08-16T18:12:57.318Z,1.80
2023-08-16T18:15:23.823Z,2.28
2023-08-16T18:17:51.355Z,3.75
2023-08-16T18:20:17.711Z,3.13
2023-08-16T18:22:44.093Z,1.88
2023-08-16T18:25:10.551Z,2.15
2023-08-16T18:27:37.025Z,1.30
2023-08-16T18:30:04.033Z,1.92
2023-08-16T18:32:30.544Z,1.70
2023-08-16T18:34:56.994Z,1.67
2023-08-16T18:37:23.653Z,1.50
2023-08-16T18:39:50.226Z,2.30
2023-08-16T18:42:16.618Z,1.35
2023-08-16T18:44:43.025Z,1.45
2023-08-16T18:47:09.855Z,1.38
2023-08-16T18:49:36.257Z,2.08
2023-08-16T18:52:02.754Z,1.88
2023-08-16T18:54:29.091Z,1.63
2023-08-16T18:56:55.443Z,1.52
2023-08-16T18:59:21.861Z,1.60
2023-08-16T19:01:48.312Z,2.05
2023-08-16T19:04:14.746Z,2.03
2023-08-16T19:06:41.183Z,1.52
2023-08-16T19:09:07.544Z,1.88
2023-08-16T19:11:34.094Z,1.88
2023-08-16T19:14:00.469Z,1.58
2023-08-16T19:16:26.871Z,1.75
2023-08-16T19:18:56.824Z,1.83
2023-08-16T19:21:23.334Z,1.58
2023-08-16T19:23:49.720Z,1.58
2023-08-16T19:26:16.170Z,1.70
2023-08-16T19:28:42.514Z,1.80
2023-08-16T19:31:09.008Z,2.47
2023-08-16T19:33:35.418Z,1.90
2023-08-16T19:36:02.847Z,1.50
2023-08-16T19:38:29.294Z,1.38
2023-08-16T19:40:55.726Z,1.67
2023-08-16T19:43:22.155Z,1.85
2023-08-16T19:45:51.747Z,2.00
2023-08-16T19:48:18.239Z,1.83
2023-08-16T19:50:45.462Z,1.95
2023-08-16T19:53:11.948Z,1.67
2023-08-16T19:55:38.586Z,1.65
2023-08-16T19:58:04.991Z,1.45
2023-08-16T20:00:31.494Z,1.90
2023-08-16T20:02:58.096Z,1.90
2023-08-16T20:05:24.768Z,2.13
2023-08-16T20:07:51.129Z,1.83
2023-08-16T20:10:18.330Z,1.98
2023-08-16T20:12:46.010Z,2.65
2023-08-16T20:15:14.111Z,2.60
2023-08-16T20:17:40.660Z,2.05
2023-08-16T20:20:08.210Z,3.00
2023-08-16T20:22:37.685Z,3.00
2023-08-16T20:25:05.866Z,2.78
2023-08-16T20:27:32.436Z,3.30
2023-08-16T20:29:59.031Z,2.10
2023-08-16T20:32:25.446Z,2.92
2023-08-16T20:34:56.939Z,2.20
2023-08-16T20:37:24.341Z,2.88
2023-08-16T20:39:52.061Z,2.42
2023-08-16T20:42:36.698Z,2.60
2023-08-16T20:45:05.314Z,2.25
2023-08-16T20:47:32.164Z,2.53
2023-08-16T20:49:59.532Z,2.33
2023-08-16T20:52:26.080Z,2.63
2023-08-16T20:54:53.814Z,2.33
2023-08-16T20:57:20.334Z,2.65
2023-08-16T20:59:47.788Z,2.78
2023-08-16T21:02:15.433Z,2.47
2023-08-16T21:04:42.476Z,2.55
2023-08-16T21:07:09.290Z,2.10
2023-08-16T21:09:36.021Z,2.55
2023-08-16T21:12:02.494Z,2.17
2023-08-16T21:14:28.861Z,2.28
2023-08-16T21:16:55.993Z,2.85
2023-08-16T21:19:23.255Z,3.03
2023-08-16T21:21:49.735Z,2.50
2023-08-16T21:24:16.316Z,3.22
2023-08-16T21:26:43.445Z,2.92
2023-08-16T21:29:11.799Z,2.40
2023-08-16T21:31:39.209Z,2.28
2023-08-16T21:34:10.228Z,2.58
2023-08-16T21:39:06.348Z,2.60
2023-08-16T21:41:33.727Z,2.97
2023-08-16T21:44:00.993Z,2.78
2023-08-16T21:46:27.873Z,2.90
2023-08-16T21:48:54.577Z,3.03
2023-08-16T21:51:21.634Z,2.90
2023-08-16T21:53:48.329Z,2.58
2023-08-16T21:56:17.162Z,2.50
2023-08-16T21:58:43.668Z,2.83
2023-08-16T22:01:10.597Z,2.40
2023-08-16T22:03:37.286Z,2.03
2023-08-16T22:06:04.576Z,2.25
2023-08-16T22:08:31.151Z,1.67
2023-08-16T22:10:57.808Z,1.95
2023-08-16T22:13:25.187Z,2.60
2023-08-16T22:15:51.738Z,3.03
2023-08-16T22:18:19.240Z,2.53
2023-08-16T22:20:56.405Z,2.58
2023-08-16T22:23:27.456Z,2.13
2023-08-16T22:25:54.422Z,2.88
2023-08-16T22:28:20.814Z,2.03
2023-08-16T22:30:47.263Z,2.38
2023-08-16T22:33:13.713Z,2.05
2023-08-16T22:35:40.084Z,2.30
2023-08-16T22:38:06.490Z,2.30
2023-08-16T22:40:32.873Z,2.53
2023-08-16T22:42:59.287Z,2.13
2023-08-16T22:45:25.680Z,2.30
2023-08-16T22:47:52.162Z,1.92
2023-08-16T22:50:19.491Z,2.25
2023-08-16T22:52:45.928Z,2.10
2023-08-16T22:55:12.366Z,2.33
2023-08-16T22:57:38.812Z,2.30
2023-08-16T23:00:06.039Z,2.15
2023-08-16T23:02:32.414Z,2.97
2023-08-16T23:04:58.831Z,2.35
2023-08-16T23:07:25.392Z,2.45
2023-08-16T23:09:52.525Z,2.70
2023-08-16T23:12:18.899Z,2.40
2023-08-16T23:14:45.329Z,2.42
2023-08-16T23:17:11.729Z,2.38
2023-08-16T23:19:38.191Z,2.90
2023-08-16T23:22:04.653Z,2.63
2023-08-16T23:24:31.204Z,3.50
2023-08-16T23:26:57.681Z,2.75
2023-08-16T23:29:24.219Z,2.58
2023-08-16T23:31:50.692Z,2.63
2023-08-16T23:34:17.208Z,2.28
2023-08-16T23:36:43.587Z,2.45
2023-08-16T23:39:10.078Z,2.60
2023-08-16T23:41:36.437Z,2.40
2023-08-16T23:44:02.808Z,2.97
2023-08-16T23:46:29.225Z,3.20
2023-08-16T23:48:55.598Z,2.60
2023-08-16T23:51:22.068Z,2.75
2023-08-16T23:53:48.467Z,3.42
2023-08-16T23:56:14.843Z,3.80
2023-08-16T23:58:42.362Z,3.10
